createdAt,value
2023-04-03T00:00:02.551Z,1086.2490
2023-04-03T00:00:13.580Z,1091.5780
2023-04-03T00:00:24.614Z,1090.6860
2023-04-03T00:00:36.016Z,1087.1340
2023-04-03T00:00:47.357Z,1088.9070
2023-04-03T00:00:58.419Z,1086.2490
2023-04-03T00:01:09.443Z,1087.1340
2023-04-03T00:01:20.534Z,1088.9070
2023-04-03T00:01:31.573Z,1088.9070
2023-04-03T00:01:42.715Z,1087.1340
2023-04-03T00:01:53.840Z,1083.6040
2023-04-03T00:02:04.960Z,1089.7960
2023-04-03T00:02:16.116Z,1085.3660
2023-04-03T00:02:27.245Z,1094.2620
2023-04-03T00:02:38.466Z,1090.6860
2023-04-03T00:02:49.658Z,1090.6860
2023-04-03T00:03:00.788Z,1088.9070
2023-04-03T00:03:11.869Z,1083.6040
2023-04-03T00:03:22.921Z,1088.9070
2023-04-03T00:03:33.986Z,1091.5780
2023-04-03T00:03:45.050Z,1083.6040
2023-04-03T00:03:56.146Z,1088.0200
2023-04-03T00:04:07.201Z,1088.9070
2023-04-03T00:04:18.460Z,1091.5780
2023-04-03T00:04:29.609Z,1087.1340
2023-04-03T00:04:40.697Z,1094.2620
2023-04-03T00:04:51.763Z,1087.1340
2023-04-03T00:05:02.802Z,1089.7960
2023-04-03T00:05:13.891Z,1080.9720
2023-04-03T00:05:24.914Z,1090.6860
2023-04-03T00:05:35.967Z,1081.8480
2023-04-03T00:05:47.014Z,1083.6040
2023-04-03T00:05:58.062Z,1082.7250
2023-04-03T00:06:09.110Z,1088.0200
2023-04-03T00:06:20.153Z,1088.9070
2023-04-03T00:06:31.192Z,1093.3660
2023-04-03T00:06:42.458Z,1090.6860
2023-04-03T00:06:53.515Z,1085.3660
2023-04-03T00:07:04.563Z,1083.6040
2023-04-03T00:07:15.596Z,1092.4709
2023-04-03T00:07:26.668Z,1089.7960
2023-04-03T00:07:37.694Z,1085.3660
2023-04-03T00:07:48.765Z,1088.9070
2023-04-03T00:07:59.816Z,1094.2620
2023-04-03T00:08:10.832Z,1094.2620
2023-04-03T00:08:21.906Z,1090.6860
2023-04-03T00:08:32.954Z,1097.8621
2023-04-03T00:08:44.015Z,1088.0200
2023-04-03T00:08:55.047Z,1090.6860
2023-04-03T00:09:06.600Z,1087.1340
2023-04-03T00:09:18.394Z,1080.9720
2023-04-03T00:09:29.453Z,1092.4709
2023-04-03T00:09:40.504Z,1090.6860
2023-04-03T00:09:51.613Z,1089.7960
2023-04-03T00:10:02.637Z,1088.9070
2023-04-03T00:10:13.677Z,1089.7960
2023-04-03T00:10:24.743Z,1087.1340
2023-04-03T00:10:36.229Z,1096.0590
2023-04-03T00:10:47.653Z,1090.6860
2023-04-03T00:10:58.721Z,1084.4840
2023-04-03T00:11:09.778Z,1094.2620
2023-04-03T00:11:20.806Z,1095.1600
2023-04-03T00:11:31.885Z,1094.2620
2023-04-03T00:11:42.949Z,1095.1600
2023-04-03T00:11:54.002Z,1084.4840
2023-04-03T00:12:05.070Z,1088.9070
2023-04-03T00:12:16.134Z,1096.0590
2023-04-03T00:12:27.172Z,1092.4709
2023-04-03T00:12:38.237Z,1095.1600
2023-04-03T00:12:49.254Z,1098.7650
2023-04-03T00:13:00.302Z,1087.1340
2023-04-03T00:13:11.367Z,1095.1600
2023-04-03T00:13:22.398Z,1095.1600
2023-04-03T00:13:33.421Z,1090.6860
2023-04-03T00:13:44.482Z,1094.2620
2023-04-03T00:13:55.523Z,1101.4850
2023-04-03T00:14:06.584Z,1096.0590
2023-04-03T00:14:17.614Z,1099.6710
2023-04-03T00:14:28.628Z,1090.6860
2023-04-03T00:14:39.704Z,1093.3660
2023-04-03T00:14:50.737Z,1096.0590
2023-04-03T00:15:01.824Z,1100.5770
2023-04-03T00:15:12.887Z,1105.1320
2023-04-03T00:15:23.948Z,1100.5770
2023-04-03T00:15:35.011Z,1096.0590
2023-04-03T00:15:46.061Z,1096.9600
2023-04-03T00:15:57.095Z,1102.3950
2023-04-03T00:16:08.156Z,1100.5770
2023-04-03T00:16:19.444Z,1099.6710
2023-04-03T00:16:30.514Z,1099.6710
2023-04-03T00:16:41.651Z,1103.3060
2023-04-03T00:16:52.733Z,1093.3660
2023-04-03T00:17:03.839Z,1105.1320
2023-04-03T00:17:14.847Z,1099.6710
2023-04-03T00:17:25.902Z,1105.1320
2023-04-03T00:17:37.040Z,1097.8621
2023-04-03T00:17:48.080Z,1104.2180
2023-04-03T00:17:59.217Z,1096.9600
2023-04-03T00:18:10.287Z,1103.3060
2023-04-03T00:18:21.329Z,1096.0590
2023-04-03T00:18:32.353Z,1102.3950
2023-04-03T00:18:43.455Z,1103.3060
2023-04-03T00:18:54.503Z,1093.3660
2023-04-03T00:19:05.568Z,1104.2180
2023-04-03T00:19:16.623Z,1098.7650
2023-04-03T00:19:27.657Z,1106.9650
2023-04-03T00:19:38.698Z,1104.2180
2023-04-03T00:19:49.757Z,1103.3060
2023-04-03T00:20:00.809Z,1102.3950
2023-04-03T00:20:11.895Z,1110.6490
2023-04-03T00:20:22.964Z,1106.9650
2023-04-03T00:20:34.217Z,1104.2180
2023-04-03T00:20:45.632Z,1106.0480
2023-04-03T00:20:56.710Z,1096.0590
2023-04-03T00:21:07.763Z,1106.9650
2023-04-03T00:21:18.792Z,1107.8840
2023-04-03T00:21:29.853Z,1106.0480
2023-04-03T00:21:40.905Z,1107.8840
2023-04-03T00:21:51.971Z,1106.0480
2023-04-03T00:22:03.053Z,1103.3060
2023-04-03T00:22:14.075Z,1107.8840
2023-04-03T00:22:25.117Z,1106.9650
2023-04-03T00:22:36.189Z,1107.8840
2023-04-03T00:22:47.255Z,1109.7260
2023-04-03T00:22:58.302Z,1110.6490
2023-04-03T00:23:09.331Z,1111.5740
2023-04-03T00:23:20.376Z,1106.9650
2023-04-03T00:23:31.458Z,1106.9650
2023-04-03T00:23:42.492Z,1101.4850
2023-04-03T00:23:53.559Z,1119.9659
2023-04-03T00:24:04.611Z,1109.7260
2023-04-03T00:24:15.648Z,1108.8040
2023-04-03T00:24:26.676Z,1113.4280
2023-04-03T00:24:37.738Z,1111.5740
2023-04-03T00:24:48.782Z,1112.5000
2023-04-03T00:24:59.860Z,1117.1550
2023-04-03T00:25:10.895Z,1111.5740
2023-04-03T00:25:21.985Z,1112.5000
2023-04-03T00:25:33.077Z,1116.2209
2023-04-03T00:25:44.112Z,1114.3571
2023-04-03T00:25:55.170Z,1111.5740
2023-04-03T00:26:06.207Z,1117.1550
2023-04-03T00:26:17.232Z,1112.5000
2023-04-03T00:26:28.272Z,1109.7260
2023-04-03T00:26:39.312Z,1114.3571
2023-04-03T00:26:50.375Z,1112.5000
2023-04-03T00:27:01.440Z,1114.3571
2023-04-03T00:27:12.509Z,1116.2209
2023-04-03T00:27:23.549Z,1119.0280
2023-04-03T00:27:34.608Z,1115.2880
2023-04-03T00:27:45.654Z,1117.1550
2023-04-03T00:27:56.728Z,1111.5740
2023-04-03T00:28:07.786Z,1112.5000
2023-04-03T00:28:18.838Z,1117.1550
2023-04-03T00:28:29.907Z,1113.4280
2023-04-03T00:28:40.963Z,1110.6490
2023-04-03T00:28:52.026Z,1115.2880
2023-04-03T00:29:03.072Z,1121.8490
2023-04-03T00:29:14.174Z,1120.9070
2023-04-03T00:29:25.201Z,1118.0900
2023-04-03T00:29:36.241Z,1119.9659
2023-04-03T00:29:47.304Z,1119.9659
2023-04-03T00:29:58.358Z,1115.2880
2023-04-03T00:30:09.419Z,1118.0900
2023-04-03T00:30:20.479Z,1119.9659
2023-04-03T00:30:31.530Z,1119.9659
2023-04-03T00:30:42.585Z,1117.1550
2023-04-03T00:30:53.642Z,1119.9659
2023-04-03T00:31:04.727Z,1118.0900
2023-04-03T00:31:15.820Z,1121.8490
2023-04-03T00:31:26.919Z,1116.2209
2023-04-03T00:31:37.943Z,1119.0280
2023-04-03T00:31:48.992Z,1117.1550
2023-04-03T00:32:00.064Z,1119.9659
2023-04-03T00:32:11.153Z,1123.7371
2023-04-03T00:32:22.186Z,1119.9659
2023-04-03T00:32:33.255Z,1121.8490
2023-04-03T00:32:44.309Z,1125.6320
2023-04-03T00:32:55.391Z,1114.3571
2023-04-03T00:33:06.500Z,1116.2209
2023-04-03T00:33:17.590Z,1120.9070
2023-04-03T00:33:28.653Z,1121.8490
2023-04-03T00:33:39.712Z,1127.5341
2023-04-03T00:33:50.765Z,1123.7371
2023-04-03T00:34:01.820Z,1118.0900
2023-04-03T00:34:12.854Z,1124.6840
2023-04-03T00:34:23.927Z,1125.6320
2023-04-03T00:34:35.007Z,1127.5341
2023-04-03T00:34:46.093Z,1121.8490
2023-04-03T00:34:57.148Z,1118.0900
2023-04-03T00:35:08.189Z,1129.4420
2023-04-03T00:35:19.273Z,1123.7371
2023-04-03T00:35:30.330Z,1127.5341
2023-04-03T00:35:41.491Z,1125.6320
2023-04-03T00:35:52.675Z,1121.8490
2023-04-03T00:36:03.783Z,1124.6840
2023-04-03T00:36:14.902Z,1121.8490
2023-04-03T00:36:26.054Z,1127.5341
2023-04-03T00:36:37.144Z,1130.3979
2023-04-03T00:36:48.266Z,1127.5341
2023-04-03T00:36:59.473Z,1132.3160
2023-04-03T00:37:10.593Z,1127.5341
2023-04-03T00:37:21.621Z,1128.4871
2023-04-03T00:37:32.674Z,1129.4420
2023-04-03T00:37:43.712Z,1127.5341
2023-04-03T00:37:54.808Z,1131.3560
2023-04-03T00:38:05.997Z,1130.3979
2023-04-03T00:38:17.067Z,1121.8490
2023-04-03T00:38:28.126Z,1121.8490
2023-04-03T00:38:39.150Z,1129.4420
2023-04-03T00:38:50.190Z,1131.3560
2023-04-03T00:39:01.257Z,1129.4420
2023-04-03T00:39:12.287Z,1129.4420
2023-04-03T00:39:23.335Z,1128.4871
2023-04-03T00:39:34.384Z,1127.5341
2023-04-03T00:39:45.439Z,1134.2400
2023-04-03T00:39:56.465Z,1125.6320
2023-04-03T00:40:07.501Z,1128.4871
2023-04-03T00:40:18.599Z,1126.5820
2023-04-03T00:40:29.646Z,1122.7920
2023-04-03T00:40:40.713Z,1126.5820
2023-04-03T00:40:51.776Z,1131.3560
2023-04-03T00:41:02.824Z,1130.3979
2023-04-03T00:41:13.874Z,1132.3160
2023-04-03T00:41:24.934Z,1134.2400
2023-04-03T00:41:35.992Z,1135.2040
2023-04-03T00:41:47.063Z,1127.5341
2023-04-03T00:41:58.127Z,1136.1700
2023-04-03T00:42:09.195Z,1135.2040
2023-04-03T00:42:20.248Z,1131.3560
2023-04-03T00:42:31.311Z,1125.6320
2023-04-03T00:42:42.390Z,1128.4871
2023-04-03T00:42:53.421Z,1136.1700
2023-04-03T00:43:04.471Z,1131.3560
2023-04-03T00:43:15.547Z,1129.4420
2023-04-03T00:43:26.565Z,1132.3160
2023-04-03T00:43:37.548Z,1125.6320
2023-04-03T00:43:48.601Z,1135.2040
2023-04-03T00:43:59.634Z,1127.5341
2023-04-03T00:44:10.724Z,1142.0020
2023-04-03T00:44:21.787Z,1132.3160
2023-04-03T00:44:32.809Z,1126.5820
2023-04-03T00:44:43.862Z,1136.1700
2023-04-03T00:44:54.911Z,1132.3160
2023-04-03T00:45:05.974Z,1141.0260
2023-04-03T00:45:17.043Z,1135.2040
2023-04-03T00:45:28.055Z,1137.1379
2023-04-03T00:45:39.124Z,1136.1700
2023-04-03T00:45:50.172Z,1130.3979
2023-04-03T00:46:01.198Z,1133.2770
2023-04-03T00:46:12.272Z,1131.3560
2023-04-03T00:46:23.369Z,1134.2400
2023-04-03T00:46:34.431Z,1131.3560
2023-04-03T00:46:45.540Z,1130.3979
2023-04-03T00:46:56.616Z,1134.2400
2023-04-03T00:47:07.686Z,1126.5820
2023-04-03T00:47:18.721Z,1133.2770
2023-04-03T00:47:29.780Z,1137.1379
2023-04-03T00:47:40.872Z,1137.1379
2023-04-03T00:47:52.016Z,1131.3560
2023-04-03T00:48:03.105Z,1137.1379
2023-04-03T00:48:14.156Z,1141.0260
2023-04-03T00:48:25.218Z,1139.0790
2023-04-03T00:48:36.264Z,1135.2040
2023-04-03T00:48:47.312Z,1141.0260
2023-04-03T00:48:58.354Z,1131.3560
2023-04-03T00:49:09.392Z,1135.2040
2023-04-03T00:49:20.449Z,1129.4420
2023-04-03T00:49:31.476Z,1135.2040
2023-04-03T00:49:42.540Z,1131.3560
2023-04-03T00:49:53.558Z,1130.3979
2023-04-03T00:50:04.611Z,1140.0510
2023-04-03T00:50:15.663Z,1142.0020
2023-04-03T00:50:26.714Z,1136.1700
2023-04-03T00:50:38.025Z,1144.9399
2023-04-03T00:50:49.259Z,1136.1700
2023-04-03T00:51:00.311Z,1141.0260
2023-04-03T00:51:11.351Z,1142.9790
2023-04-03T00:51:22.425Z,1135.2040
2023-04-03T00:51:33.469Z,1137.1379
2023-04-03T00:51:44.517Z,1142.9790
2023-04-03T00:51:55.557Z,1147.8929
2023-04-03T00:52:06.619Z,1138.1071
2023-04-03T00:52:17.674Z,1145.9230
2023-04-03T00:52:28.715Z,1141.0260
2023-04-03T00:52:39.774Z,1142.9790
2023-04-03T00:52:50.835Z,1146.9070
2023-04-03T00:53:01.874Z,1142.0020
2023-04-03T00:53:12.924Z,1150.8621
2023-04-03T00:53:23.951Z,1146.9070
2023-04-03T00:53:34.984Z,1145.9230
2023-04-03T00:53:46.029Z,1142.0020
2023-04-03T00:53:57.071Z,1139.0790
2023-04-03T00:54:08.108Z,1142.9790
2023-04-03T00:54:19.155Z,1145.9230
2023-04-03T00:54:30.220Z,1141.0260
2023-04-03T00:54:41.277Z,1141.0260
2023-04-03T00:54:52.344Z,1142.9790
2023-04-03T00:55:03.395Z,1144.9399
2023-04-03T00:55:14.452Z,1139.0790
2023-04-03T00:55:25.513Z,1142.0020
2023-04-03T00:55:36.615Z,1146.9070
2023-04-03T00:55:47.714Z,1150.8621
2023-04-03T00:55:58.891Z,1148.8810
2023-04-03T00:56:09.987Z,1146.9070
2023-04-03T00:56:21.032Z,1141.0260
2023-04-03T00:56:32.081Z,1148.8810
2023-04-03T00:56:43.152Z,1139.0790
2023-04-03T00:56:54.330Z,1152.8500
2023-04-03T00:57:05.417Z,1152.8500
2023-04-03T00:57:16.536Z,1148.8810
2023-04-03T00:57:27.642Z,1149.8710
2023-04-03T00:57:38.755Z,1154.8440
2023-04-03T00:57:49.785Z,1152.8500
2023-04-03T00:58:00.847Z,1152.8500
2023-04-03T00:58:12.048Z,1150.8621
2023-04-03T00:58:23.113Z,1153.8459
2023-04-03T00:58:34.170Z,1151.8550
2023-04-03T00:58:45.211Z,1146.9070
2023-04-03T00:58:56.278Z,1150.8621
2023-04-03T00:59:07.357Z,1146.9070
2023-04-03T00:59:18.408Z,1158.8540
2023-04-03T00:59:29.479Z,1152.8500
2023-04-03T00:59:40.504Z,1151.8550
2023-04-03T00:59:51.552Z,1156.8459
2023-04-03T01:00:02.646Z,1154.8440
2023-04-03T01:00:13.715Z,1156.8459
2023-04-03T01:00:24.781Z,1153.8459
2023-04-03T01:00:36.228Z,1156.8459
2023-04-03T01:00:47.673Z,1162.8920
2023-04-03T01:00:58.728Z,1158.8540
2023-04-03T01:01:09.758Z,1158.8540
2023-04-03T01:01:20.888Z,1156.8459
2023-04-03T01:01:32.026Z,1156.8459
2023-04-03T01:01:43.075Z,1164.9210
2023-04-03T01:01:54.273Z,1162.8920
2023-04-03T01:02:05.384Z,1157.8490
2023-04-03T01:02:16.423Z,1152.8500
2023-04-03T01:02:27.535Z,1158.8540
2023-04-03T01:02:38.612Z,1156.8459
2023-04-03T01:02:49.698Z,1169.0020
2023-04-03T01:03:00.747Z,1163.9060
2023-04-03T01:03:11.771Z,1160.8700
2023-04-03T01:03:22.833Z,1164.9210
2023-04-03T01:03:33.906Z,1163.9060
2023-04-03T01:03:44.969Z,1164.9210
2023-04-03T01:03:56.088Z,1164.9210
2023-04-03T01:04:07.182Z,1162.8920
2023-04-03T01:04:18.236Z,1166.9580
2023-04-03T01:04:29.315Z,1159.8610
2023-04-03T01:04:40.484Z,1166.9580
2023-04-03T01:04:51.595Z,1167.9790
2023-04-03T01:05:02.672Z,1169.0020
2023-04-03T01:05:13.736Z,1172.0811
2023-04-03T01:05:24.782Z,1171.0530
2023-04-03T01:05:35.838Z,1173.1110
2023-04-03T01:05:46.876Z,1178.2880
2023-04-03T01:05:57.979Z,1163.9060
2023-04-03T01:06:09.031Z,1166.9580
2023-04-03T01:06:20.124Z,1171.0530
2023-04-03T01:06:31.170Z,1175.1760
2023-04-03T01:06:42.207Z,1173.1110
2023-04-03T01:06:53.259Z,1178.2880
2023-04-03T01:07:04.317Z,1172.0811
2023-04-03T01:07:15.363Z,1179.3290
2023-04-03T01:07:26.503Z,1179.3290
2023-04-03T01:07:37.584Z,1175.1760
2023-04-03T01:07:48.628Z,1180.3710
2023-04-03T01:07:59.673Z,1171.0530
2023-04-03T01:08:10.721Z,1179.3290
2023-04-03T01:08:21.788Z,1177.2490
2023-04-03T01:08:32.857Z,1169.0020
2023-04-03T01:08:43.918Z,1181.4160
2023-04-03T01:08:54.974Z,1178.2880
2023-04-03T01:09:06.036Z,1177.2490
2023-04-03T01:09:17.092Z,1179.3290
2023-04-03T01:09:28.219Z,1179.3290
2023-04-03T01:09:39.255Z,1176.2111
2023-04-03T01:09:50.318Z,1184.5610
2023-04-03T01:10:01.384Z,1185.6130
2023-04-03T01:10:12.454Z,1183.5110
2023-04-03T01:10:23.599Z,1186.6670
2023-04-03T01:10:35.252Z,1179.3290
2023-04-03T01:10:46.714Z,1183.5110
2023-04-03T01:10:57.814Z,1184.5610
2023-04-03T01:11:08.917Z,1179.3290
2023-04-03T01:11:19.962Z,1186.6670
2023-04-03T01:11:31.011Z,1191.9640
2023-04-03T01:11:42.084Z,1191.9640
2023-04-03T01:11:53.158Z,1188.7800
2023-04-03T01:12:04.214Z,1186.6670
2023-04-03T01:12:15.248Z,1187.7220
2023-04-03T01:12:26.320Z,1187.7220
2023-04-03T01:12:37.397Z,1191.9640
2023-04-03T01:12:48.436Z,1185.6130
2023-04-03T01:12:59.473Z,1193.0291
2023-04-03T01:13:10.555Z,1189.8400
2023-04-03T01:13:21.582Z,1183.5110
2023-04-03T01:13:32.618Z,1198.3840
2023-04-03T01:13:43.674Z,1197.3090
2023-04-03T01:13:54.777Z,1200.5400
2023-04-03T01:14:05.815Z,1187.7220
2023-04-03T01:14:16.846Z,1198.3840
2023-04-03T01:14:27.896Z,1191.9640
2023-04-03T01:14:38.983Z,1201.6200
2023-04-03T01:14:50.007Z,1194.0970
2023-04-03T01:15:01.049Z,1201.6200
2023-04-03T01:15:12.152Z,1198.3840
2023-04-03T01:15:23.206Z,1196.2371
2023-04-03T01:15:34.264Z,1189.8400
2023-04-03T01:15:45.395Z,1200.5400
2023-04-03T01:15:56.502Z,1202.7030
2023-04-03T01:16:07.741Z,1194.0970
2023-04-03T01:16:18.934Z,1200.5400
2023-04-03T01:16:30.035Z,1202.7030
2023-04-03T01:16:41.178Z,1202.7030
2023-04-03T01:16:52.236Z,1197.3090
2023-04-03T01:17:03.282Z,1207.0520
2023-04-03T01:17:14.319Z,1198.3840
2023-04-03T01:17:25.367Z,1207.0520
2023-04-03T01:17:36.468Z,1196.2371
2023-04-03T01:17:47.535Z,1207.0520
2023-04-03T01:17:58.594Z,1205.9620
2023-04-03T01:18:09.665Z,1208.1450
2023-04-03T01:18:20.744Z,1207.0520
2023-04-03T01:18:31.792Z,1212.5341
2023-04-03T01:18:42.859Z,1214.7410
2023-04-03T01:18:53.890Z,1215.8470
2023-04-03T01:19:04.913Z,1218.0660
2023-04-03T01:19:15.961Z,1212.5341
2023-04-03T01:19:27.008Z,1210.3350
2023-04-03T01:19:38.056Z,1202.7030
2023-04-03T01:19:49.125Z,1212.5341
2023-04-03T01:20:00.185Z,1212.5341
2023-04-03T01:20:11.225Z,1218.0660
2023-04-03T01:20:22.296Z,1209.2390
2023-04-03T01:20:33.426Z,1222.5270
2023-04-03T01:20:44.488Z,1213.6360
2023-04-03T01:20:55.553Z,1220.2930
2023-04-03T01:21:06.608Z,1215.8470
2023-04-03T01:21:17.689Z,1221.4091
2023-04-03T01:21:28.789Z,1212.5341
2023-04-03T01:21:39.847Z,1213.6360
2023-04-03T01:21:50.914Z,1216.9550
2023-04-03T01:22:01.986Z,1218.0660
2023-04-03T01:22:13.030Z,1224.7710
2023-04-03T01:22:24.061Z,1218.0660
2023-04-03T01:22:35.117Z,1224.7710
2023-04-03T01:22:46.154Z,1222.5270
2023-04-03T01:22:57.220Z,1219.1780
2023-04-03T01:23:08.267Z,1229.2820
2023-04-03T01:23:19.318Z,1224.7710
2023-04-03T01:23:30.378Z,1223.6479
2023-04-03T01:23:41.418Z,1218.0660
2023-04-03T01:23:52.490Z,1229.2820
2023-04-03T01:24:03.561Z,1229.2820
2023-04-03T01:24:14.594Z,1228.1510
2023-04-03T01:24:25.656Z,1231.5500
2023-04-03T01:24:36.695Z,1229.2820
2023-04-03T01:24:47.756Z,1233.8260
2023-04-03T01:24:58.834Z,1232.6870
2023-04-03T01:25:09.865Z,1230.4150
2023-04-03T01:25:20.965Z,1220.2930
2023-04-03T01:25:32.020Z,1232.6870
2023-04-03T01:25:43.092Z,1232.6870
2023-04-03T01:25:54.113Z,1227.0220
2023-04-03T01:26:05.179Z,1232.6870
2023-04-03T01:26:16.239Z,1229.2820
2023-04-03T01:26:27.278Z,1228.1510
2023-04-03T01:26:38.343Z,1239.5540
2023-04-03T01:26:49.404Z,1236.1110
2023-04-03T01:27:00.452Z,1239.5540
2023-04-03T01:27:11.562Z,1236.1110
2023-04-03T01:27:22.620Z,1236.1110
2023-04-03T01:27:33.670Z,1236.1110
2023-04-03T01:27:44.715Z,1237.2570
2023-04-03T01:27:55.765Z,1231.5500
2023-04-03T01:28:06.825Z,1229.2820
2023-04-03T01:28:17.884Z,1237.2570
2023-04-03T01:28:28.959Z,1241.8600
2023-04-03T01:28:40.008Z,1232.6870
2023-04-03T01:28:51.086Z,1240.7061
2023-04-03T01:29:02.159Z,1233.8260
2023-04-03T01:29:13.237Z,1241.8600
2023-04-03T01:29:24.277Z,1245.3361
2023-04-03T01:29:35.322Z,1234.9680
2023-04-03T01:29:46.384Z,1246.4990
2023-04-03T01:29:57.393Z,1241.8600
2023-04-03T01:30:08.450Z,1241.8600
2023-04-03T01:30:19.477Z,1244.1750
2023-04-03T01:30:30.538Z,1244.1750
2023-04-03T01:30:41.610Z,1245.3361
2023-04-03T01:30:52.624Z,1251.1720
2023-04-03T01:31:03.777Z,1245.3361
2023-04-03T01:31:14.857Z,1251.1720
2023-04-03T01:31:25.943Z,1245.3361
2023-04-03T01:31:37.038Z,1251.1720
2023-04-03T01:31:48.120Z,1248.8311
2023-04-03T01:31:59.339Z,1251.1720
2023-04-03T01:32:10.442Z,1248.8311
2023-04-03T01:32:21.501Z,1252.3450
2023-04-03T01:32:32.600Z,1245.3361
2023-04-03T01:32:43.712Z,1252.3450
2023-04-03T01:32:54.752Z,1252.3450
2023-04-03T01:33:05.841Z,1243.0170
2023-04-03T01:33:16.921Z,1247.6639
2023-04-03T01:33:27.976Z,1252.3450
2023-04-03T01:33:39.014Z,1259.4340
2023-04-03T01:33:50.078Z,1257.0620
2023-04-03T01:34:01.122Z,1254.6990
2023-04-03T01:34:12.177Z,1257.0620
2023-04-03T01:34:23.234Z,1254.6990
2023-04-03T01:34:34.297Z,1246.4990
2023-04-03T01:34:45.356Z,1247.6639
2023-04-03T01:34:56.416Z,1252.3450
2023-04-03T01:35:07.490Z,1254.6990
2023-04-03T01:35:18.543Z,1259.4340
2023-04-03T01:35:29.600Z,1254.6990
2023-04-03T01:35:40.689Z,1252.3450
2023-04-03T01:35:51.764Z,1259.4340
2023-04-03T01:36:02.850Z,1259.4340
2023-04-03T01:36:13.928Z,1257.0620
2023-04-03T01:36:24.987Z,1250.0000
2023-04-03T01:36:36.037Z,1257.0620
2023-04-03T01:36:47.096Z,1261.8149
2023-04-03T01:36:58.154Z,1250.0000
2023-04-03T01:37:09.212Z,1258.2469
2023-04-03T01:37:20.238Z,1261.8149
2023-04-03T01:37:31.277Z,1259.4340
2023-04-03T01:37:42.357Z,1265.4030
2023-04-03T01:37:53.406Z,1261.8149
2023-04-03T01:38:04.434Z,1259.4340
2023-04-03T01:38:15.498Z,1260.6230
2023-04-03T01:38:26.529Z,1261.8149
2023-04-03T01:38:37.576Z,1266.6030
2023-04-03T01:38:48.615Z,1257.0620
2023-04-03T01:38:59.676Z,1264.2050
2023-04-03T01:39:10.788Z,1252.3450
2023-04-03T01:39:21.847Z,1265.4030
2023-04-03T01:39:32.912Z,1269.0110
2023-04-03T01:39:43.965Z,1266.6030
2023-04-03T01:39:54.990Z,1266.6030
2023-04-03T01:40:06.040Z,1275.0720
2023-04-03T01:40:17.075Z,1266.6030
2023-04-03T01:40:28.113Z,1266.6030
2023-04-03T01:40:39.298Z,1275.0720
2023-04-03T01:40:50.365Z,1269.0110
2023-04-03T01:41:01.395Z,1270.2190
2023-04-03T01:41:12.450Z,1279.9620
2023-04-03T01:41:23.514Z,1269.0110
2023-04-03T01:41:34.594Z,1269.0110
2023-04-03T01:41:45.670Z,1265.4030
2023-04-03T01:41:56.735Z,1269.0110
2023-04-03T01:42:07.815Z,1264.2050
2023-04-03T01:42:18.859Z,1269.0110
2023-04-03T01:42:29.918Z,1266.6030
2023-04-03T01:42:40.977Z,1264.2050
2023-04-03T01:42:52.040Z,1277.5120
2023-04-03T01:43:03.077Z,1270.2190
2023-04-03T01:43:14.143Z,1281.1899
2023-04-03T01:43:25.164Z,1278.7360
2023-04-03T01:43:36.222Z,1273.8550
2023-04-03T01:43:47.289Z,1281.1899
2023-04-03T01:43:58.359Z,1273.8550
2023-04-03T01:44:09.416Z,1272.6410
2023-04-03T01:44:20.460Z,1281.1899
2023-04-03T01:44:31.514Z,1281.1899
2023-04-03T01:44:42.574Z,1273.8550
2023-04-03T01:44:53.650Z,1271.4290
2023-04-03T01:45:04.693Z,1279.9620
2023-04-03T01:45:15.730Z,1283.6541
2023-04-03T01:45:26.882Z,1281.1899
2023-04-03T01:45:37.911Z,1277.5120
2023-04-03T01:45:48.991Z,1272.6410
2023-04-03T01:46:00.111Z,1276.2910
2023-04-03T01:46:11.241Z,1286.1270
2023-04-03T01:46:22.271Z,1283.6541
2023-04-03T01:46:33.386Z,1278.7360
2023-04-03T01:46:44.436Z,1283.6541
2023-04-03T01:46:55.465Z,1286.1270
2023-04-03T01:47:06.523Z,1283.6541
2023-04-03T01:47:17.584Z,1286.1270
2023-04-03T01:47:28.628Z,1277.5120
2023-04-03T01:47:39.768Z,1286.1270
2023-04-03T01:47:50.935Z,1288.6100
2023-04-03T01:48:02.048Z,1284.8890
2023-04-03T01:48:13.117Z,1284.8890
2023-04-03T01:48:24.164Z,1284.8890
2023-04-03T01:48:35.204Z,1292.3521
2023-04-03T01:48:46.273Z,1281.1899
2023-04-03T01:48:57.338Z,1293.6050
2023-04-03T01:49:08.403Z,1291.1030
2023-04-03T01:49:19.463Z,1296.1169
2023-04-03T01:49:30.513Z,1296.1169
2023-04-03T01:49:41.545Z,1293.6050
2023-04-03T01:49:52.623Z,1292.3521
2023-04-03T01:50:03.682Z,1291.1030
2023-04-03T01:50:14.734Z,1297.3760
2023-04-03T01:50:25.755Z,1292.3521
2023-04-03T01:50:37.277Z,1288.6100
2023-04-03T01:50:48.647Z,1293.6050
2023-04-03T01:50:59.680Z,1294.8590
2023-04-03T01:51:10.733Z,1289.8550
2023-04-03T01:51:21.784Z,1294.8590
2023-04-03T01:51:32.836Z,1294.8590
2023-04-03T01:51:43.937Z,1301.1700
2023-04-03T01:51:54.987Z,1298.6379
2023-04-03T01:52:06.045Z,1294.8590
2023-04-03T01:52:17.089Z,1301.1700
2023-04-03T01:52:28.135Z,1303.7111
2023-04-03T01:52:39.200Z,1299.9030
2023-04-03T01:52:50.258Z,1301.1700
2023-04-03T01:53:01.331Z,1298.6379
2023-04-03T01:53:12.384Z,1296.1169
2023-04-03T01:53:23.449Z,1293.6050
2023-04-03T01:53:34.477Z,1303.7111
2023-04-03T01:53:45.531Z,1289.8550
2023-04-03T01:53:56.584Z,1291.1030
2023-04-03T01:54:07.633Z,1303.7111
2023-04-03T01:54:18.690Z,1303.7111
2023-04-03T01:54:29.727Z,1304.9850
2023-04-03T01:54:40.791Z,1299.9030
2023-04-03T01:54:51.838Z,1303.7111
2023-04-03T01:55:02.886Z,1304.9850
2023-04-03T01:55:13.935Z,1301.1700
2023-04-03T01:55:24.971Z,1306.2620
2023-04-03T01:55:36.036Z,1303.7111
2023-04-03T01:55:47.091Z,1301.1700
2023-04-03T01:55:58.136Z,1298.6379
2023-04-03T01:56:09.226Z,1299.9030
2023-04-03T01:56:20.269Z,1303.7111
2023-04-03T01:56:31.319Z,1304.9850
2023-04-03T01:56:42.385Z,1304.9850
2023-04-03T01:56:53.505Z,1303.7111
2023-04-03T01:57:04.613Z,1302.4390
2023-04-03T01:57:15.681Z,1302.4390
2023-04-03T01:57:26.775Z,1303.7111
2023-04-03T01:57:37.847Z,1308.8240
2023-04-03T01:57:48.898Z,1303.7111
2023-04-03T01:57:59.942Z,1308.8240
2023-04-03T01:58:11.013Z,1312.6840
2023-04-03T01:58:22.037Z,1316.5680
2023-04-03T01:58:33.115Z,1311.3950
2023-04-03T01:58:44.174Z,1301.1700
2023-04-03T01:58:55.239Z,1313.9760
2023-04-03T01:59:06.330Z,1303.7111
2023-04-03T01:59:17.374Z,1315.2710
2023-04-03T01:59:28.443Z,1306.2620
2023-04-03T01:59:39.499Z,1308.8240
2023-04-03T01:59:50.540Z,1315.2710
2023-04-03T02:00:01.715Z,1315.2710
2023-04-03T02:00:12.726Z,1320.4750
2023-04-03T02:00:23.790Z,1313.9760
2023-04-03T02:00:35.068Z,1316.5680
2023-04-03T02:00:46.417Z,1312.6840
2023-04-03T02:00:57.557Z,1321.7820
2023-04-03T02:01:08.763Z,1311.3950
2023-04-03T02:01:19.921Z,1316.5680
2023-04-03T02:01:31.070Z,1317.8680
2023-04-03T02:01:42.223Z,1311.3950
2023-04-03T02:01:53.278Z,1315.2710
2023-04-03T02:02:04.347Z,1311.3950
2023-04-03T02:02:15.392Z,1316.5680
2023-04-03T02:02:26.440Z,1316.5680
2023-04-03T02:02:37.530Z,1321.7820
2023-04-03T02:02:48.567Z,1316.5680
2023-04-03T02:02:59.664Z,1312.6840
2023-04-03T02:03:10.728Z,1319.1700
2023-04-03T02:03:21.754Z,1319.1700
2023-04-03T02:03:32.818Z,1321.7820
2023-04-03T02:03:43.882Z,1320.4750
2023-04-03T02:03:54.951Z,1317.8680
2023-04-03T02:04:06.057Z,1327.0380
2023-04-03T02:04:17.136Z,1313.9760
2023-04-03T02:04:28.346Z,1316.5680
2023-04-03T02:04:39.398Z,1320.4750
2023-04-03T02:04:50.455Z,1331.0070
2023-04-03T02:05:01.526Z,1327.0380
2023-04-03T02:05:12.605Z,1321.7820
2023-04-03T02:05:23.690Z,1319.1700
2023-04-03T02:05:34.726Z,1327.0380
2023-04-03T02:05:45.762Z,1317.8680
2023-04-03T02:05:56.816Z,1327.0380
2023-04-03T02:06:07.880Z,1331.0070
2023-04-03T02:06:18.940Z,1327.0380